Data for 10/02/2006

Time Sea-Level Adjusted Pressure Absolute Pressure Temperature Relative Humidity Dew Point   
(mb) (inHg) (mb) (inHg) (C) (F) (%) (C) (F)
00:05 1015 29.97 845 24.95 11.3 52.4 41 -1.3 29.6
00:10 1015 29.97 845 24.95 11.4 52.5 38 -2.5 27.5
00:15 1015 29.97 845 24.95 11.8 53.3 37 -2.2 28
00:20 1016 30 845 24.95 11.8 53.2 38 -2.1 28.1
00:25 1016 30 845 24.95 11.8 53.2 36 -2.8 26.9
00:30 1016 30 845 24.95 12 53.7 35 -3 26.6
00:35 1016 30 845 24.95 12.1 53.8 35 -3 26.7
00:40 1016 30 845 24.95 12.1 53.8 34 -3 26.5
00:45 1016 30 845 24.95 11.9 53.5 36 -2.7 27.1
00:50 1016 30 845 24.95 11.7 53.1 35 -3.1 26.5
00:55 1016 30 845 24.95 11.9 53.5 34 -3.4 25.8
01:00 1016 30 845 24.95 12.1 53.9 34 -3.1 26.4
01:05 1016 30 845 24.95 12 53.6 35 -3.1 26.4
01:10 1016 30 845 24.95 11.7 53.1 35 -3.3 26.1
01:15 1016 30 845 24.95 11.8 53.2 35 -3.3 26.1
01:20 1016 30 845 24.95 11.8 53.2 35 -3.3 26
01:25 1016 30 845 24.95 11.7 53.1 37 -2.4 27.7
01:30 1016 30 845 24.95 10.5 50.9 42 -1.7 29
01:35 1016 30 845 24.95 10.1 50.1 42 -2.2 28
01:40 1016 30 845 24.95 10.4 50.7 40 -2.6 27.4
01:45 1016 30 845 24.95 10.9 51.7 39 -2.6 27.4
01:50 1016 30 845 24.95 10.6 51.1 41 -2.2 28
01:55 1016 30 846 24.98 10.2 50.4 41 -2.4 27.8
02:00 1016 30 846 24.98 10.5 50.8 40 -2.6 27.3
02:05 1016 30 846 24.98 10.7 51.2 40 -2.5 27.6
02:10 1016 30 846 24.98 10.5 51 40 -2.4 27.7
02:15 1016 30 846 24.98 10.4 50.7 40 -2.7 27.1
02:20 1016 30 846 24.98 10.6 51.1 40 -2.5 27.4
02:25 1016 30 846 24.98 10.9 51.5 39 -2.6 27.3
02:30 1016 30 846 24.98 10.4 50.7 42 -1.9 28.5
02:35 1016 30 846 24.98 9.7 49.5 43 -2.1 28.2
02:40 1016 30 846 24.98 9.4 48.9 44 -2.2 28.1
02:45 1017 30.03 846 24.98 9.5 49.1 43 -2.5 27.5
02:50 1017 30.03 846 24.98 9.6 49.3 43 -2.4 27.7
02:55 1017 30.03 846 24.98 9.4 48.9 44 -2.3 27.8
03:00 1017 30.03 846 24.98 9.4 48.9 43 -2.5 27.5
03:05 1017 30.03 846 24.98 9.5 49 42 -2.9 26.8
03:10 1017 30.03 846 24.98 9.7 49.4 41 -2.8 27
03:15 1017 30.03 846 24.98 9.7 49.5 41 -2.9 26.7
03:20 1017 30.03 846 24.98 9.8 49.7 39 -3.5 25.8
03:25 1017 30.03 846 24.98 9.7 49.5 42 -2.5 27.6
03:30 1017 30.03 846 24.98 9.3 48.7 43 -2.7 27.1
03:35 1017 30.03 846 24.98 9.5 49.1 41 -3 26.6
03:40 1017 30.03 846 24.98 9.4 49 42 -2.9 26.8
03:45 1017 30.03 846 24.98 9.1 48.3 44 -2.5 27.5
03:50 1017 30.03 846 24.98 8.8 47.8 45 -2.6 27.4
03:55 1017 30.03 846 24.98 8.6 47.4 45 -2.7 27.1
04:00 1017 30.03 846 24.98 8.5 47.4 44 -2.9 26.8
04:05 1017 30.03 846 24.98 8.9 47.9 43 -3 26.7
04:10 1017 30.03 846 24.98 9.2 48.5 42 -3.1 26.4
04:15 1017 30.03 846 24.98 9.1 48.4 43 -2.9 26.7
04:20 1017 30.03 846 24.98 9 48.2 43 -3 26.6
04:25 1017 30.03 846 24.98 9 48.2 42 -3.1 26.5
04:30 1017 30.03 846 24.98 9 48.1 42 -3.2 26.2
04:35 1017 30.03 846 24.98 9 48.1 43 -3 26.5
04:40 1017 30.03 846 24.98 8.8 47.9 43 -3.1 26.4
04:45 1017 30.03 846 24.98 8.8 47.8 43 -3.1 26.4
04:50 1017 30.03 846 24.98 8.7 47.7 43 -3.1 26.5
04:55 1017 30.03 846 24.98 8.6 47.4 44 -2.9 26.8
05:00 1017 30.03 846 24.98 8.6 47.4 43 -3.3 26
05:05 1017 30.03 846 24.98 8.6 47.6 43 -3.3 26.1
05:10 1017 30.03 846 24.98 8.5 47.3 44 -3.1 26.5
05:15 1017 30.03 846 24.98 8.4 47.1 44 -3.3 26.1
05:20 1017 30.03 846 24.98 8.4 47.1 43 -3.4 25.9
05:25 1017 30.03 846 24.98 8.6 47.5 42 -3.5 25.7
05:30 1017 30.03 846 24.98 8.8 47.8 42 -3.3 26
05:35 1017 30.03 846 24.98 8.8 47.9 41 -3.7 25.4
05:40 1017 30.03 846 24.98 8.8 47.9 42 -3.3 26.1
05:45 1017 30.03 846 24.98 8.7 47.6 41 -3.8 25.1
05:50 1017 30.03 846 24.98 8.7 47.7 43 -3.2 26.2
05:55 1017 30.03 846 24.98 8.4 47 44 -3.2 26.3
06:00 1017 30.03 846 24.98 8.1 46.6 45 -3.1 26.3
06:05 1017 30.03 846 24.98 7.9 46.2 45 -3.4 25.9
06:10 1017 30.03 846 24.98 7.9 46.2 46 -3.1 26.5
06:15 1017 30.03 846 24.98 7.7 45.9 46 -3.3 26.1
06:20 1017 30.03 846 24.98 7.9 46.2 45 -3.4 25.9
06:25 1017 30.03 846 24.98 7.9 46.3 45 -3.3 26
06:30 1017 30.03 846 24.98 7.9 46.2 45 -3.1 26.3
06:35 1017 30.03 846 24.98 7.7 45.9 46 -3.2 26.2
06:40 1017 30.03 846 24.98 7.9 46.1 45 -3.4 25.9
06:45 1017 30.03 846 24.98 7.9 46.2 44 -3.5 25.7
06:50 1017 30.03 846 24.98 8 46.4 44 -3.4 25.8
06:55 1017 30.03 846 24.98 8 46.5 44 -3.4 25.9
07:00 1017 30.03 846 24.98 8.1 46.6 44 -3.3 26
07:05 1017 30.03 846 24.98 8.2 46.7 43 -3.7 25.4
07:10 1017 30.03 846 24.98 8.4 47.1 42 -3.6 25.5
07:15 1017 30.03 846 24.98 8.4 47.1 42 -3.6 25.5
07:20 1017 30.03 846 24.98 8.3 47 43 -3.6 25.6
07:25 1017 30.03 846 24.98 8 46.3 46 -2.9 26.7
07:30 1017 30.03 846 24.98 7.6 45.7 47 -3.1 26.5
07:35 1017 30.03 846 24.98 7.2 45 49 -2.9 26.8
07:40 1017 30.03 846 24.98 6.9 44.5 48 -3.2 26.3
07:45 1017 30.03 846 24.98 6.9 44.4 49 -3.1 26.4
07:50 1017 30.03 846 24.98 7.4 45.3 45 -3.7 25.3
07:55 1017 30.03 847 25.01 7.8 46.1 45 -3.5 25.7
08:00 1017 30.03 847 25.01 7.6 45.7 47 -3 26.7
08:05 1017 30.03 846 24.98 7.3 45.1 47 -3.2 26.3
08:10 1017 30.03 847 25.01 7.4 45.2 45 -3.7 25.3
08:15 1017 30.03 847 25.01 8 46.3 45 -3.3 26.1
08:20 1017 30.03 847 25.01 7.5 45.6 48 -2.8 26.9
08:25 1017 30.03 847 25.01 7.3 45.2 48 -3 26.6
08:30 1017 30.03 847 25.01 7.7 45.8 45 -3.5 25.7
08:35 1017 30.03 847 25.01 8 46.4 44 -3.4 25.8
08:40 1017 30.03 847 25.01 8.3 46.9 43 -3.6 25.5
08:45 1018 30.06 847 25.01 8.5 47.3 44 -2.9 26.7
08:50 1018 30.06 847 25.01 8.5 47.2 44 -3.2 26.2
08:55 1018 30.06 847 25.01 8.8 47.8 42 -3.3 26.1
09:00 1018 30.06 847 25.01 9.1 48.4 42 -3.1 26.3
09:05 1018 30.06 847 25.01 9.6 49.3 40 -3.4 25.9
09:10 1018 30.06 847 25.01 10 50 40 -2.9 26.8
09:15 1018 30.06 847 25.01 10.3 50.5 38 -3.2 26.2
09:20 1018 30.06 847 25.01 10.5 50.9 39 -2.8 27
09:25 1018 30.06 847 25.01 10.5 50.8 39 -2.8 27
09:30 1018 30.06 847 25.01 10.7 51.3 39 -2.5 27.5
09:35 1018 30.06 847 25.01 10.6 51.1 39 -2.6 27.3
09:40 1018 30.06 847 25.01 11 51.7 38 -2.9 26.8
09:45 1018 30.06 847 25.01 11.6 52.8 37 -2.7 27.1
09:50 1018 30.06 847 25.01 11.9 53.3 36 -2.8 27
09:55 1018 30.06 847 25.01 12.6 54.6 33 -3.1 26.4
10:00 1018 30.06 847 25.01 12.9 55.2 32 -3.2 26.3
10:05 1018 30.06 847 25.01 12.9 55.2 33 -3.1 26.5
10:10 1018 30.06 847 25.01 13.4 56.1 32 -2.9 26.8
10:15 1018 30.06 847 25.01 13.2 55.8 33 -2.7 27.2
10:20 1018 30.06 847 25.01 13.6 56.5 32 -2.9 26.8
10:25 1018 30.06 847 25.01 14.1 57.4 31 -2.8 27
10:30 1018 30.06 847 25.01 14.1 57.4 30 -3.1 26.4
10:35 1018 30.06 847 25.01 14.2 57.5 29 -3.3 26.1
10:40 1018 30.06 847 25.01 14.9 58.7 29 -2.8 27
10:45 1018 30.06 847 25.01 14.7 58.5 30 -2.5 27.5
10:50 1018 30.06 847 25.01 15.2 59.3 29 -2.7 27.1
10:55 1018 30.06 847 25.01 15.6 60.1 29 -2.4 27.7
11:00 1018 30.06 847 25.01 15.2 59.3 29 -2.6 27.3
11:05 1018 30.06 847 25.01 15.6 60.1 28 -2.7 27.2
11:10 1018 30.06 847 25.01 15.7 60.3 28 -2.5 27.6
11:15 1018 30.06 847 25.01 16.7 62 27 -2.3 27.9
11:20 1018 30.06 847 25.01 16.1 60.9 28 -2.6 27.4
11:25 1017 30.03 847 25.01 15.3 59.6 28 -2.9 26.8
11:30 1017 30.03 847 25.01 15 59.1 29 -2.6 27.3
11:35 1018 30.06 847 25.01 15.6 60 29 -2.5 27.5
11:40 1017 30.03 847 25.01 16.2 61.1 28 -2.3 27.8
11:45 1017 30.03 847 25.01 15.9 60.5 28 -2.3 27.8
11:50 1017 30.03 846 24.98 15.1 59.2 29 -2.8 27
11:55 1017 30.03 847 25.01 15.7 60.2 28 -2.7 27.2
12:00 1017 30.03 846 24.98 15.8 60.5 30 -1.6 29.2
12:05 1017 30.03 846 24.98 16.1 61 29 -2 28.4
12:10 1017 30.03 846 24.98 16 60.7 29 -1.9 28.6
12:15 1017 30.03 846 24.98 17.1 62.8 26 -2.4 27.6
12:20 1017 30.03 846 24.98 18.2 64.8 25 -2.2 28
12:25 1017 30.03 846 24.98 17.9 64.3 25 -2.1 28.3
12:30 1017 30.03 846 24.98 17.6 63.7 27 -1.3 29.7
12:35 1017 30.03 846 24.98 17.5 63.5 26 -1.9 28.6
12:40 1017 30.03 846 24.98 18.3 64.9 25 -2 28.3
12:45 1017 30.03 846 24.98 18.2 64.7 26 -1.2 29.8
12:50 1017 30.03 846 24.98 17.8 64.1 27 -1.1 30.1
12:55 1017 30.03 846 24.98 18.1 64.5 27 -0.9 30.4
13:00 1017 30.03 846 24.98 17.9 64.1 28 -0.9 30.4
13:05 1017 30.03 846 24.98 17.8 64 28 -0.6 30.8
13:10 1017 30.03 846 24.98 17.7 63.8 28 -0.9 30.4
13:15 1017 30.03 846 24.98 17.6 63.7 28 -1.1 30.1
13:20 1017 30.03 846 24.98 18.1 64.5 27 -1 30.2
13:25 1017 30.03 846 24.98 17.8 64 27 -1.2 29.9
13:30 1017 30.03 846 24.98 17.8 64 28 -0.8 30.6
13:35 1017 30.03 846 24.98 17.8 64 28 -0.7 30.7
13:40 1017 30.03 846 24.98 17.7 63.9 29 -0.6 30.9
13:45 1017 30.03 846 24.98 17.5 63.6 28 -1 30.2
13:50 1017 30.03 846 24.98 17.3 63.2 28 -1.3 29.7
13:55 1017 30.03 846 24.98 17.3 63.1 28 -1.1 29.9
14:00 1017 30.03 846 24.98 17.6 63.7 29 -0.5 31
14:05 1017 30.03 846 24.98 17.5 63.5 28 -1.2 29.8
14:10 1017 30.03 846 24.98 17.5 63.5 28 -1.1 29.9
14:15 1017 30.03 846 24.98 17.5 63.6 26 -2 28.5
14:20 1017 30.03 846 24.98 17.4 63.3 27 -1.9 28.7
14:25 1017 30.03 846 24.98 17.4 63.4 26 -2 28.3
14:30 1017 30.03 846 24.98 17.7 63.9 26 -2 28.5
14:35 1017 30.03 846 24.98 17.7 63.9 26 -1.9 28.6
14:40 1016 30 846 24.98 18 64.4 25 -2.3 27.8
14:45 1016 30 845 24.95 18.3 64.9 25 -2.1 28.2
14:50 1016 30 846 24.98 18.2 64.8 25 -2.1 28.3
14:55 1016 30 845 24.95 18.4 65.1 24 -2.2 28
15:00 1016 30 845 24.95 18.4 65.1 23 -2.7 27.1
15:05 1016 30 845 24.95 17.6 63.6 25 -2.7 27.1
15:10 1016 30 845 24.95 17 62.6 25 -2.9 26.7
15:15 1016 30 845 24.95 17.4 63.4 26 -2.4 27.7
15:20 1016 30 845 24.95 17.8 64.1 25 -2.1 28.2
15:25 1016 30 845 24.95 17.8 64 26 -1.9 28.5
15:30 1016 30 845 24.95 17.6 63.8 26 -1.9 28.6
15:35 1016 30 845 24.95 17.7 63.9 27 -1.2 29.8
15:40 1016 30 845 24.95 17.8 64.1 26 -1.8 28.8
15:45 1016 30 845 24.95 17.3 63.2 26 -2 28.3
15:50 1016 30 845 24.95 17.3 63.1 26 -2.1 28.3
15:55 1016 30 845 24.95 17.3 63.2 27 -1.8 28.8
16:00 1016 30 845 24.95 17.2 63 27 -1.8 28.7
16:05 1016 30 845 24.95 16.8 62.2 30 -1 30.3
16:10 1016 30 845 24.95 16.8 62.2 28 -1.9 28.7
16:15 1016 30 845 24.95 16.9 62.3 28 -1.7 28.9
16:20 1016 30 845 24.95 16.9 62.3 28 -1.5 29.3
16:25 1016 30 845 24.95 17 62.6 31 0 32.1
16:30 1016 30 845 24.95 17.1 62.8 28 -1.6 29.1
16:35 1016 30 845 24.95 16.8 62.3 28 -1.6 29.1
16:40 1016 30 845 24.95 16.6 61.9 29 -1.5 29.3
16:45 1016 30 845 24.95 16.4 61.5 29 -1.6 29.1
16:50 1016 30 845 24.95 16.5 61.6 30 -1 30.1
16:55 1016 30 845 24.95 16.6 61.9 30 -0.8 30.6
17:00 1016 30 845 24.95 16.5 61.6 30 -1.3 29.7
17:05 1016 30 845 24.95 16.3 61.3 32 -0.4 31.2
17:10 1016 30 845 24.95 16.5 61.7 32 -0.2 31.6
17:15 1016 30 845 24.95 16.2 61.1 31 -0.7 30.7
17:20 1016 30 845 24.95 16.1 61 32 -0.7 30.7
17:25 1016 30 845 24.95 16.1 61 32 -0.5 31
17:30 1016 30 846 24.98 16.1 60.9 32 -0.7 30.8
17:35 1016 30 846 24.98 16.4 61.5 31 -0.8 30.6
17:40 1016 30 846 24.98 16.2 61.2 32 -0.6 30.9
17:45 1016 30 846 24.98 16.3 61.4 31 -0.7 30.8
17:50 1016 30 846 24.98 16.3 61.4 32 -0.2 31.7
17:55 1016 30 846 24.98 16.1 61 34 0.4 32.6
18:00 1016 30 846 24.98 15.9 60.7 33 -0.1 31.8
18:05 1016 30 846 24.98 16.1 60.9 32 -0.5 31
18:10 1016 30 846 24.98 15.7 60.2 40 2.2 35.9
18:15 1016 30 846 24.98 15.2 59.3 39 1.4 34.6
18:20 1016 30 846 24.98 15.1 59.1 36 0.3 32.5
18:25 1016 30 846 24.98 15.6 60 35 0.2 32.4
18:30 1016 30 846 24.98 16 60.8 34 0.3 32.6
18:35 1017 30.03 846 24.98 16.1 60.9 34 0.1 32.2
18:40 1017 30.03 846 24.98 15.4 59.8 38 1.2 34.1
18:45 1017 30.03 846 24.98 15.3 59.5 38 1 33.8
18:50 1017 30.03 846 24.98 15.1 59.2 39 1.4 34.5
18:55 1017 30.03 846 24.98 14.9 58.8 41 1.9 35.4
19:00 1017 30.03 846 24.98 15.1 59.1 38 1 33.7
19:05 1017 30.03 846 24.98 15.2 59.4 40 1.8 35.2
19:10 1017 30.03 846 24.98 15 59 41 2.1 35.7
19:15 1017 30.03 846 24.98 14.7 58.4 44 2.6 36.8
19:20 1017 30.03 846 24.98 14.5 58.1 42 1.8 35.2
19:25 1017 30.03 846 24.98 14.6 58.2 45 2.8 37
19:30 1017 30.03 846 24.98 14.3 57.8 46 3 37.4
19:35 1017 30.03 846 24.98 14.3 57.7 47 3.2 37.7
19:40 1017 30.03 846 24.98 14.3 57.7 49 3.6 38.6
19:45 1017 30.03 846 24.98 14 57.2 55 5.1 41.1
19:50 1017 30.03 846 24.98 13.8 56.8 53 4.4 39.9
19:55 1017 30.03 846 24.98 13.4 56.2 57 5 41.1
20:00 1017 30.03 846 24.98 13.2 55.7 56 4.7 40.5
20:05 1017 30.03 846 24.98 13.1 55.5 53 3.8 38.8
20:10 1017 30.03 846 24.98 13.4 56.2 52 3.9 39
20:15 1017 30.03 846 24.98 13.5 56.3 51 3.7 38.7
20:20 1017 30.03 846 24.98 13.2 55.8 53 3.9 39.1
20:25 1017 30.03 846 24.98 13.1 55.6 55 4.3 39.7
20:30 1017 30.03 846 24.98 12.9 55.2 56 4.4 39.8
20:35 1017 30.03 846 24.98 13 55.3 47 2 35.6
20:40 1017 30.03 846 24.98 13.4 56.1 49 3.1 37.6
20:45 1017 30.03 846 24.98 13.2 55.8 52 3.5 38.4
20:50 1017 30.03 846 24.98 13 55.5 53 3.6 38.5
20:55 1017 30.03 846 24.98 13.1 55.7 52 3.5 38.3
21:00 1017 30.03 846 24.98 13.1 55.6 54 4.1 39.4
21:05 1017 30.03 847 25.01 12.8 55.1 57 4.6 40.2
21:10 1018 30.06 847 25.01 12.3 54.2 63 5.6 42.1
21:15 1018 30.06 847 25.01 11.9 53.4 66 5.8 42.5
21:20 1018 30.06 847 25.01 11.6 52.8 69 6.2 43.1
21:25 1018 30.06 847 25.01 11.3 52.3 73 6.5 43.8
21:30 1018 30.06 847 25.01 10.8 51.5 78 7.1 44.8
21:35 1018 30.06 847 25.01 10.5 50.8 81 7.3 45.1
21:40 1018 30.06 847 25.01 10.3 50.6 82 7.3 45.2
21:45 1018 30.06 847 25.01 10.1 50.2 84 7.6 45.7
21:50 1018 30.06 847 25.01 9.9 49.9 83 7.3 45.1
21:55 1018 30.06 847 25.01 9.9 49.7 83 7.2 44.9
22:00 1018 30.06 847 25.01 9.8 49.6 82 6.9 44.3
22:05 1018 30.06 847 25.01 9.5 49.2 83 6.8 44.2
22:10 1018 30.06 847 25.01 9.3 48.7 85 6.9 44.4
22:15 1018 30.06 847 25.01 9.2 48.5 85 6.7 44.1
22:20 1018 30.06 847 25.01 9 48.2 84 6.5 43.7
22:25 1018 30.06 847 25.01 9.1 48.3 83 6.4 43.5
22:30 1018 30.06 847 25.01 8.9 48 85 6.5 43.6
22:35 1018 30.06 847 25.01 8.7 47.7 86 6.5 43.6
22:40 1018 30.06 847 25.01 8.7 47.7 85 6.4 43.5
22:45 1018 30.06 847 25.01 8.7 47.6 86 6.4 43.5
22:50 1018 30.06 847 25.01 8.7 47.7 85 6.4 43.4
22:55 1018 30.06 847 25.01 8.7 47.7 85 6.4 43.5
23:00 1018 30.06 847 25.01 8.7 47.6 84 6.1 42.9
23:05 1018 30.06 847 25.01 8.7 47.6 84 6.1 43
23:10 1018 30.06 847 25.01 8.8 47.8 84 6.2 43.2
23:15 1018 30.06 847 25.01 8.8 47.9 82 5.9 42.6
23:20 1018 30.06 847 25.01 8.9 47.9 81 5.8 42.5
23:25 1018 30.06 847 25.01 8.9 48 80 5.6 42.1
23:30 1018 30.06 847 25.01 8.9 48.1 78 5.3 41.5
23:35 1018 30.06 847 25.01 9.1 48.3 76 5.2 41.3
23:40 1018 30.06 847 25.01 9.1 48.4 76 5 41.1
23:45 1018 30.06 847 25.01 9.1 48.4 77 5.2 41.4
23:50 1018 30.06 847 25.01 9 48.2 77 5.3 41.5
23:55 1018 30.06 847 25.01 9.1 48.3 79 5.6 42
24:00 1018 30.06 847 25.01 9 48.2 79 5.6 42.1